| time (UTC) | temp F | wind direction | speed knots | gust knots | rain 1hr in | rain 24hr in | rain mn in | humidity % | barometer mb |
| 20260505224315 | 78 | 210 | 0.9 | 2.6 | 0.00 | 0.02 | 0.02 | 32 | |
| 20260505223335 | 78 | 243 | 0.9 | 3.5 | 0.00 | 0.02 | 0.02 | 31 | |
| 20260505222355 | 78 | 211 | 1.7 | 4.3 | 0.00 | 0.02 | 0.02 | 30 | |
| 20260505221315 | 78 | 262 | 0.9 | 3.5 | 0.00 | 0.02 | 0.02 | 31 | |
| 20260505220316 | 79 | 0.0 | 0.9 | 0.00 | 0.02 | 0.02 | 31 | ||
| 20260505215315 | 79 | 231 | 0.9 | 3.5 | 0.00 | 0.02 | 0.02 | 30 | |
| 20260505214315 | 79 | 224 | 0.9 | 3.5 | 0.00 | 0.02 | 0.02 | 31 | |
| 20260505213315 | 79 | 233 | 0.9 | 6.1 | 0.00 | 0.02 | 0.02 | 31 | |
| 20260505212316 | 80 | 245 | 1.7 | 5.2 | 0.00 | 0.02 | 0.02 | 30 | |
| 20260505211315 | 81 | 234 | 0.9 | 4.3 | 0.00 | 0.02 | 0.02 | 32 | |
| 20260505210316 | 81 | 0.0 | 7.0 | 0.00 | 0.02 | 0.02 | 32 | ||
| 20260505205315 | 81 | 238 | 0.9 | 5.2 | 0.00 | 0.02 | 0.02 | 30 | |
| 20260505204315 | 81 | 233 | 0.9 | 4.3 | 0.00 | 0.02 | 0.02 | 32 | |
| 20260505203315 | 81 | 237 | 1.7 | 3.5 | 0.00 | 0.02 | 0.02 | 32 | |
| 20260505202315 | 81 | 250 | 0.9 | 3.5 | 0.00 | 0.02 | 0.02 | 33 | 1008.2 |
| 20260505201315 | 80 | 253 | 0.9 | 3.5 | 0.00 | 0.02 | 0.02 | 33 | 1008.1 |
| 20260505200315 | 80 | 244 | 0.9 | 6.1 | 0.00 | 0.02 | 0.02 | 33 | 1008.2 |
| 20260505195335 | 81 | 236 | 1.7 | 3.5 | 0.00 | 0.02 | 0.02 | 33 | 1008.3 |
| 20260505194317 | 81 | 243 | 2.6 | 7.0 | 0.00 | 0.02 | 0.02 | 32 | 1008.3 |
| 20260505193315 | 81 | 235 | 0.0 | 2.6 | 0.00 | 0.02 | 0.02 | 35 | 1008.5 |
| 20260505192317 | 81 | 219 | 0.0 | 1.7 | 0.00 | 0.02 | 0.02 | 35 | 1008.9 |
| 20260505191316 | 81 | 182 | 0.9 | 2.6 | 0.00 | 0.02 | 0.02 | 36 | 1009.0 |
| 20260505190317 | 81 | 187 | 0.0 | 0.9 | 0.00 | 0.02 | 0.02 | 36 | 1009.0 |
| 20260505185318 | 81 | 184 | 1.7 | 7.8 | 0.00 | 0.02 | 0.02 | 33 | 1009.0 |
| 20260505184317 | 81 | 220 | 2.6 | 7.0 | 0.00 | 0.02 | 0.02 | 35 | 1009.3 |
| 20260505183317 | 81 | 209 | 0.9 | 2.6 | 0.00 | 0.02 | 0.02 | 36 | 1009.6 |
| 20260505182317 | 81 | 197 | 4.3 | 6.1 | 0.00 | 0.02 | 0.02 | 36 | 1009.5 |
| 20260505182116 | 81 | 211 | 0.9 | 11.3 | 0.00 | 0.02 | 0.02 | 37 | 1009.4 |
| 20260505181116 | 82 | 241 | 0.9 | 4.3 | 0.00 | 0.02 | 0.02 | 37 | 1009.6 |
| 20260505180135 | 81 | 263 | 0.0 | 4.3 | 0.00 | 0.02 | 0.02 | 38 | 1009.6 |
| 20260505175116 | 81 | 244 | 0.0 | 2.6 | 0.00 | 0.02 | 0.02 | 38 | 1009.7 |
| 20260505174116 | 81 | 249 | 0.9 | 3.5 | 0.00 | 0.02 | 0.02 | 37 | 1009.8 |
| 20260505173115 | 81 | 0.0 | 4.3 | 0.00 | 0.02 | 0.02 | 37 | 1010.0 | |
| 20260505172116 | 81 | 253 | 0.9 | 5.2 | 0.00 | 0.02 | 0.02 | 39 | 1010.1 |
| 20260505171136 | 81 | 243 | 0.0 | 0.9 | 0.00 | 0.02 | 0.02 | 42 | 1010.2 |
| 20260505170116 | 81 | 207 | 1.7 | 6.1 | 0.00 | 0.02 | 0.02 | 43 | 1010.3 |
| 20260505165135 | 81 | 238 | 0.0 | 2.6 | 0.00 | 0.02 | 0.02 | 41 | 1010.5 |
| 20260505164136 | 80 | 0.0 | 0.9 | 0.00 | 0.02 | 0.02 | 43 | 1010.7 | |
| 20260505163115 | 79 | 253 | 0.0 | 1.7 | 0.00 | 0.02 | 0.02 | 42 | 1010.8 |
| 20260505162116 | 79 | 48 | 0.0 | 5.2 | 0.00 | 0.02 | 0.02 | 47 | 1010.8 |
| 20260505161116 | 79 | 288 | 0.9 | 2.6 | 0.00 | 0.02 | 0.02 | 45 | 1010.9 |
| 20260505160116 | 78 | 246 | 0.0 | 2.6 | 0.00 | 0.02 | 0.02 | 45 | 1011.1 |
| 20260505153116 | 75 | 0.0 | 0.9 | 0.00 | 0.02 | 0.02 | 48 | 1011.3 | |
| 20260505152116 | 75 | 200 | 0.9 | 7.8 | 0.00 | 0.02 | 0.02 | 47 | 1011.6 |
| 20260505151115 | 74 | 0.0 | 0.0 | 0.00 | 0.02 | 0.02 | 52 | 1011.4 | |
| 20260505150116 | 73 | 0.0 | 0.0 | 0.00 | 0.02 | 0.02 | 51 | 1011.4 | |
| 20260505140135 | 69 | 256 | 0.0 | 1.7 | 0.00 | 0.02 | 0.02 | 64 | 1011.7 |
| 20260505130115 | 64 | 243 | 0.0 | 2.6 | 0.00 | 0.02 | 0.02 | 66 | 1011.3 |
| 20260505124115 | 63 | 0.0 | 0.0 | 0.00 | 0.02 | 0.02 | 70 | 1011.0 | |
| 20260505123116 | 62 | 0.0 | 0.9 | 0.00 | 0.02 | 0.02 | 71 | 1011.1 | |
| 20260505122115 | 61 | 0.0 | 0.0 | 0.00 | 0.02 | 0.02 | 73 | 1011.2 | |
| 20260505121115 | 60 | 0.0 | 0.0 | 0.00 | 0.02 | 0.02 | 75 | 1011.3 | |
| 20260505120115 | 59 | 0.0 | 0.9 | 0.00 | 0.02 | 0.02 | 76 | 1011.4 | |
| 20260505115115 | 58 | 0.0 | 0.0 | 0.00 | 0.02 | 0.02 | 79 | 1011.3 | |
| 20260505114115 | 57 | 246 | 0.0 | 1.7 | 0.02 | 0.02 | 0.02 | 82 | 1011.2 |
| 20260505113115 | 56 | 0.0 | 0.0 | 0.02 | 0.02 | 0.02 | 85 | 1011.2 | |
| 20260505112135 | 56 | 0.0 | 0.0 | 0.02 | 0.02 | 0.02 | 84 | 1011.3 | |
| 20260505111135 | 55 | 0.0 | 0.0 | 0.02 | 0.02 | 0.02 | 84 | 1011.0 | |
| 20260505110115 | 56 | 0.0 | 0.0 | 0.02 | 0.02 | 0.02 | 84 | 1011.1 | |
| 20260505102135 | 0 | 0.0 | 0.0 | 0.00 | 0.00 | 0.00 | |||
| 20260505100815 | 0 | 0.0 | 0.0 | 0.00 | 0.00 | 0.00 | |||
| 20260505095816 | 0 | 0.0 | 0.0 | 0.00 | 0.00 | 0.00 | |||
| 20260505094215 | 0 | 0.0 | 0.0 | 0.00 | 0.00 | 0.00 | |||
| 20260505093235 | 0 | 0.0 | 0.0 | 0.00 | 0.00 | 0.00 | |||
| 20260505091715 | 0 | 0.0 | 0.0 | 0.00 | 0.00 | 0.00 | |||
| 20260505090717 | 0 | 0.0 | 0.0 | 0.00 | 0.00 | 0.00 | |||
| 20260505085317 | 0 | 0.0 | 0.0 | 0.00 | 0.00 | 0.00 | |||
| 20260505084317 | 0 | 0.0 | 0.0 | 0.00 | 0.00 | 0.00 | |||
| 20260505082617 | 0 | 0.0 | 0.0 | 0.00 | 0.00 | 0.00 | |||
| 20260505081617 | 56 | 0.0 | 0.0 | 0.00 | 0.00 | 0.00 | 73 | 1010.3 | |
| 20260505080137 | 57 | 0.0 | 0.0 | 0.00 | 0.00 | 0.00 | 73 | 1010.3 | |
| 20260505075117 | 57 | 0.0 | 0.0 | 0.00 | 0.00 | 0.00 | 73 | 1010.3 | |
| 20260505074117 | 57 | 0.0 | 0.0 | 0.00 | 0.00 | 0.00 | 73 | 1010.3 | |
| 20260505073117 | 57 | 0.0 | 0.0 | 0.00 | 0.00 | 0.00 | 72 | 1010.2 | |
| 20260505072117 | 57 | 0.0 | 0.0 | 0.00 | 0.00 | 0.00 | 72 | 1010.3 | |
| 20260505071737 | 57 | 0.0 | 0.0 | 0.00 | 0.00 | 0.00 | 71 | 1010.3 | |
| 20260505070717 | 57 | 0.0 | 0.0 | 0.00 | 0.00 | 0.00 | 71 | 1010.2 | |
| 20260505065717 | 58 | 0.0 | 0.0 | 0.00 | 0.00 | 0.00 | 71 | 1010.2 | |
| 20260505064716 | 58 | 0.0 | 0.0 | 0.00 | 0.00 | 0.00 | 71 | 1010.1 | |
| 20260505063716 | 58 | 0.0 | 0.0 | 0.00 | 0.00 | 0.00 | 70 | 1010.1 | |
| 20260505062717 | 58 | 0.0 | 0.0 | 0.00 | 0.00 | 0.00 | 70 | 1010.3 | |
| 20260505061716 | 58 | 0.0 | 0.0 | 0.00 | 0.00 | 0.00 | 70 | 1010.3 | |
| 20260505060716 | 58 | 0.0 | 0.0 | 0.00 | 0.00 | 0.00 | 69 | 1010.4 | |
| 20260505055716 | 58 | 152 | 0.0 | 2.6 | 0.00 | 0.00 | 0.00 | 69 | 1010.4 |
| 20260505054716 | 58 | 0.0 | 0.0 | 0.00 | 0.00 | 0.00 | 68 | 1010.5 | |
| 20260505053716 | 59 | 0.0 | 0.0 | 0.00 | 0.00 | 0.00 | 67 | 1010.6 | |
| 20260505052717 | 59 | 0.0 | 0.0 | 0.00 | 0.00 | 0.00 | 66 | 1010.6 | |
| 20260505051716 | 59 | 0.0 | 0.0 | 0.00 | 0.00 | 0.00 | 66 | 1010.7 | |
| 20260505050716 | 59 | 0.0 | 0.0 | 0.00 | 0.00 | 0.00 | 65 | 1010.8 | |
| 20260505041716 | 60 | 0.0 | 0.0 | 0.00 | 0.00 | 0.00 | 59 | 1010.8 | |
| 20260505040717 | 61 | 234 | 0.0 | 1.7 | 0.00 | 0.00 | 0.00 | 58 | 1010.7 |
| 20260505040157 | 60 | 171 | 0.9 | 3.5 | 0.00 | 0.00 | 0.00 | 58 | 1010.8 |
| 20260505035117 | 60 | 0.0 | 0.0 | 0.00 | 0.00 | 0.00 | 57 | 1010.8 | |
| 20260505034157 | 61 | 177 | 0.0 | 3.5 | 0.00 | 0.00 | 0.00 | 56 | 1010.9 |
| 20260505033117 | 61 | 159 | 0.9 | 4.3 | 0.00 | 0.00 | 0.00 | 56 | 1010.9 |
| 20260505032116 | 61 | 0.0 | 3.5 | 0.00 | 0.00 | 0.00 | 56 | 1010.9 | |
| 20260505031117 | 61 | 240 | 0.0 | 2.6 | 0.00 | 0.00 | 0.00 | 56 | 1011.0 |
| 20260505030117 | 61 | 230 | 0.0 | 1.7 | 0.00 | 0.00 | 0.00 | 55 | 1011.0 |
| 20260505025116 | 61 | 0.0 | 0.9 | 0.00 | 0.00 | 0.00 | 54 | 1011.1 | |
| 20260505024116 | 61 | 0.0 | 0.0 | 0.00 | 0.00 | 0.00 | 53 | 1011.0 | |
| 20260505023115 | 62 | 0.0 | 1.7 | 0.00 | 0.00 | 0.00 | 52 | 1011.1 | |
| 20260505022135 | 62 | 153 | 0.0 | 3.5 | 0.00 | 0.00 | 0.00 | 50 | 1011.1 |
| 20260505021156 | 63 | 234 | 0.9 | 2.6 | 0.00 | 0.00 | 0.00 | 47 | 1011.4 |
| 20260505020115 | 63 | 225 | 0.0 | 0.9 | 0.00 | 0.00 | 0.00 | 46 | 1011.2 |
| 20260505015136 | 63 | 237 | 0.0 | 0.9 | 0.00 | 0.00 | 0.00 | 45 | 1011.0 |
| 20260505014115 | 63 | 236 | 0.0 | 0.9 | 0.00 | 0.00 | 0.00 | 46 | 1010.9 |
| 20260505013115 | 63 | 291 | 0.0 | 2.6 | 0.00 | 0.00 | 0.00 | 45 | 1010.9 |
| 20260505012115 | 63 | 163 | 0.0 | 2.6 | 0.00 | 0.00 | 0.00 | 46 | 1010.8 |
| 20260505011115 | 63 | 0.0 | 0.0 | 0.00 | 0.00 | 0.00 | 45 | 1010.6 | |
| 20260505010116 | 63 | 0.0 | 0.0 | 0.00 | 0.00 | 0.00 | 46 | 1010.5 | |
| 20260505005115 | 63 | 0.0 | 0.0 | 0.00 | 0.00 | 0.00 | 45 | 1010.3 | |
| 20260505004115 | 64 | 0.0 | 0.0 | 0.00 | 0.00 | 0.00 | 44 | 1010.3 | |
| 20260505003115 | 64 | 0.0 | 0.0 | 0.00 | 0.00 | 0.00 | 44 | 1010.2 | |
| 20260505002115 | 65 | 0.0 | 0.0 | 0.00 | 0.00 | 0.00 | 43 | 1010.0 | |
| 20260505001115 | 65 | 233 | 0.0 | 0.9 | 0.00 | 0.00 | 0.00 | 43 | 1009.9 |
| 20260505000115 | 65 | 0.0 | 0.0 | 0.00 | 0.00 | 0.00 | 43 | 1009.7 | |
| 20260504235115 | 66 | 238 | 0.0 | 0.9 | 0.00 | 0.00 | 0.00 | 41 | 1009.5 |
| 20260504234115 | 66 | 237 | 0.0 | 0.9 | 0.00 | 0.00 | 0.00 | 41 | 1009.4 |
| 20260504233115 | 67 | 0.0 | 0.9 | 0.00 | 0.00 | 0.00 | 40 | 1009.2 | |
| 20260504232115 | 67 | 0.0 | 0.0 | 0.00 | 0.00 | 0.00 | 40 | 1009.2 | |
| 20260504231115 | 68 | 0.0 | 2.6 | 0.00 | 0.00 | 0.00 | 40 | 1009.0 | |
| 20260504230115 | 68 | 0.0 | 0.0 | 0.00 | 0.00 | 0.00 | 39 | 1009.0 | |
| 20260504225115 | 68 | 218 | 0.9 | 4.3 | 0.00 | 0.00 | 0.00 | 38 |